Time;durP1;ratioP1;P1;durP2;ratioP2;P2;SDS_P1;SDS_P2;PMS_P1;PMS_P2;Temp;Humidity;BMP_temperature;BMP_pressure;BME280_temperature;BME280_humidity;BME280_pressure;Samples;Min_cycle;Max_cycle;Signal;HPM_P1;HPM_P2
2024/04/01 00:01:09;;;;;;;3.10;1.80;;;12.00;99.90;;;;;;5039289;28;20197;-40
2024/04/01 00:03:34;;;;;;;3.80;1.77;;;12.00;99.90;;;;;;5057001;28;20241;-39
2024/04/01 00:06:00;;;;;;;4.00;2.03;;;12.00;99.90;;;;;;5057051;28;20525;-39
2024/04/01 00:08:26;;;;;;;8.57;2.50;;;12.00;99.90;;;;;;5057490;28;20234;-43
2024/04/01 00:10:52;;;;;;;4.80;2.63;;;12.00;99.90;;;;;;5057534;28;20443;-39
2024/04/01 00:13:18;;;;;;;4.90;2.30;;;11.90;99.90;;;;;;5057065;28;20568;-40
2024/04/01 00:15:44;;;;;;;8.73;2.27;;;11.90;99.90;;;;;;5056478;28;20251;-39
2024/04/01 00:18:10;;;;;;;3.63;2.70;;;11.80;99.90;;;;;;5062300;28;20455;-39
2024/04/01 00:20:38;;;;;;;5.67;2.50;;;11.80;99.90;;;;;;5075045;28;20483;-39
2024/04/01 00:23:04;;;;;;;5.07;2.00;;;11.80;99.90;;;;;;5077248;28;20869;-38
2024/04/01 00:25:30;;;;;;;5.77;1.87;;;11.80;99.90;;;;;;5065049;28;20530;-40
2024/04/01 00:27:55;;;;;;;6.53;1.50;;;11.80;99.90;;;;;;5083299;28;20426;-37
2024/04/01 00:30:21;;;;;;;4.77;1.40;;;11.80;99.90;;;;;;5083297;28;20483;-38
2024/04/01 00:32:46;;;;;;;5.77;1.70;;;11.80;99.90;;;;;;5065661;28;20275;-39
2024/04/01 00:35:14;;;;;;;4.30;1.83;;;11.70;99.90;;;;;;5082527;28;20245;-37
2024/04/01 00:37:40;;;;;;;4.03;1.30;;;11.70;99.90;;;;;;5082913;28;20555;-39
2024/04/01 00:40:06;;;;;;;5.00;1.73;;;11.70;99.90;;;;;;5083667;28;20474;-40
2024/04/01 00:42:32;;;;;;;4.80;1.87;;;11.70;99.90;;;;;;5083582;28;20181;-39
2024/04/01 00:44:58;;;;;;;3.30;1.60;;;11.70;99.90;;;;;;5047326;28;20499;-39
2024/04/01 00:47:24;;;;;;;4.30;1.50;;;11.70;99.90;;;;;;5082945;28;20423;-38
2024/04/01 00:49:50;;;;;;;7.63;1.70;;;11.70;99.90;;;;;;5083003;28;20192;-43
2024/04/01 00:52:17;;;;;;;6.47;2.17;;;11.70;99.90;;;;;;5081729;28;20446;-40
2024/04/01 00:54:43;;;;;;;4.03;1.40;;;11.70;99.90;;;;;;5081737;28;20173;-40
2024/04/01 00:57:09;;;;;;;3.13;1.50;;;11.70;99.90;;;;;;5082310;28;20414;-38
2024/04/01 00:59:35;;;;;;;4.50;1.40;;;11.70;99.90;;;;;;5082091;28;20466;-39
2024/04/01 01:02:02;;;;;;;3.93;1.63;;;11.70;99.90;;;;;;5083275;28;20189;-42
2024/04/01 01:04:29;;;;;;;6.10;1.97;;;11.70;99.90;;;;;;5082977;28;20427;-40
2024/04/01 01:06:55;;;;;;;4.47;1.87;;;11.70;99.90;;;;;;5082418;28;20447;-39
2024/04/01 01:09:21;;;;;;;5.33;1.50;;;11.70;99.90;;;;;;5083702;28;20433;-39
2024/04/01 01:11:47;;;;;;;4.53;1.87;;;11.70;99.90;;;;;;5082448;28;20431;-39
2024/04/01 01:14:13;;;;;;;3.47;1.53;;;11.70;99.90;;;;;;5083462;28;20427;-38
2024/04/01 01:16:39;;;;;;;4.67;1.90;;;11.70;99.90;;;;;;5083177;28;20713;-39
2024/04/01 01:19:06;;;;;;;3.47;1.20;;;11.60;99.90;;;;;;5082318;28;20478;-44
2024/04/01 01:21:32;;;;;;;2.53;1.40;;;11.60;99.90;;;;;;5065351;28;20451;-40
2024/04/01 01:23:58;;;;;;;6.73;3.13;;;11.60;99.90;;;;;;5082919;28;20404;-38
2024/04/01 01:26:23;;;;;;;3.47;1.40;;;11.50;99.90;;;;;;5083333;28;20169;-39
2024/04/01 01:28:50;;;;;;;3.80;1.47;;;11.50;99.90;;;;;;5082842;28;20181;-39
2024/04/01 01:31:17;;;;;;;5.63;1.60;;;11.40;99.90;;;;;;5083357;28;20188;-39
2024/04/01 01:33:43;;;;;;;2.80;1.63;;;11.40;99.90;;;;;;5083408;28;20409;-39
2024/04/01 01:36:08;;;;;;;7.97;2.57;;;11.40;99.90;;;;;;5079844;28;20404;-38
2024/04/01 01:38:34;;;;;;;5.03;1.67;;;11.40;99.90;;;;;;5079771;28;20220;-39
2024/04/01 01:41:00;;;;;;;4.00;1.60;;;11.30;99.90;;;;;;5079862;28;20177;-40
2024/04/01 01:43:25;;;;;;;4.03;1.70;;;11.30;99.90;;;;;;5062350;28;20187;-38
2024/04/01 01:45:51;;;;;;;4.07;2.00;;;11.30;99.90;;;;;;5062509;28;20181;-39
2024/04/01 01:48:16;;;;;;;4.83;2.07;;;11.20;99.90;;;;;;5079916;28;20192;-39
2024/04/01 01:50:42;;;;;;;4.43;2.10;;;11.20;99.90;;;;;;5080142;28;20501;-39
2024/04/01 01:53:09;;;;;;;4.20;1.93;;;11.20;99.90;;;;;;5080192;28;20188;-40
2024/04/01 01:55:35;;;;;;;5.67;1.87;;;11.20;99.90;;;;;;5079479;28;20302;-39
2024/04/01 01:58:01;;;;;;;3.97;2.00;;;11.20;99.90;;;;;;5079486;28;20467;-39
2024/04/01 02:00:27;;;;;;;3.50;1.73;;;11.10;99.90;;;;;;5078337;28;20481;-39
2024/04/01 02:02:53;;;;;;;6.13;1.93;;;11.00;99.90;;;;;;5079212;28;20527;-40
2024/04/01 02:05:19;;;;;;;4.20;2.33;;;11.00;1.00;;;;;;5078894;28;20532;-39
2024/04/01 02:07:45;;;;;;;5.60;2.53;;;11.00;1.00;;;;;;5079146;28;20185;-40
2024/04/01 02:10:13;;;;;;;8.63;2.10;;;11.00;1.00;;;;;;5061727;28;20363;-38
2024/04/01 02:12:40;;;;;;;4.97;2.37;;;11.00;1.00;;;;;;5079622;28;20500;-39
2024/04/01 02:15:40;;;;;;;8.83;2.30;;;11.00;1.00;;;;;;5078705;28;20415;-40
2024/04/01 02:18:05;;;;;;;6.47;2.60;;;11.00;1.00;;;;;;5079303;28;20459;-40
2024/04/01 02:20:34;;;;;;;5.77;2.20;;;11.00;1.00;;;;;;5079238;28;20679;-39
2024/04/01 02:23:02;;;;;;;5.40;1.70;;;10.90;1.00;;;;;;5059556;28;20201;-40
2024/04/01 02:25:28;;;;;;;5.77;1.93;;;10.90;1.00;;;;;;5078887;28;20407;-39
2024/04/01 02:27:54;;;;;;;4.33;1.43;;;10.90;1.00;;;;;;5079093;28;20438;-38
2024/04/01 02:30:22;;;;;;;4.80;2.27;;;10.90;1.00;;;;;;5058850;28;20189;-38
2024/04/01 02:32:47;;;;;;;4.40;2.50;;;10.90;1.00;;;;;;5076655;28;20525;-38
2024/04/01 02:35:13;;;;;;;4.90;2.03;;;10.80;1.00;;;;;;5076980;28;20427;-41
2024/04/01 02:37:40;;;;;;;3.83;1.80;;;10.80;1.00;;;;;;5076118;28;20181;-39
2024/04/01 02:40:10;;;;;;;2.60;1.70;;;10.80;1.00;;;;;;5076228;28;20258;-39
2024/04/01 02:42:36;;;;;;;6.60;2.10;;;10.80;1.00;;;;;;5077533;28;20430;-39
2024/04/01 02:45:03;;;;;;;4.13;2.10;;;10.90;1.00;;;;;;5078537;28;20426;-38
2024/04/01 02:47:29;;;;;;;4.00;2.13;;;10.90;1.00;;;;;;5078683;28;20430;-39
2024/04/01 02:49:54;;;;;;;8.90;2.40;;;11.00;1.00;;;;;;5078605;28;20443;-42
2024/04/01 02:52:20;;;;;;;5.27;2.20;;;11.00;1.00;;;;;;5078627;28;20420;-40
2024/04/01 02:54:46;;;;;;;4.37;1.73;;;10.90;1.00;;;;;;5078751;28;20239;-39
2024/04/01 02:57:12;;;;;;;7.03;1.83;;;10.90;1.00;;;;;;5077154;28;20693;-39
2024/04/01 02:59:37;;;;;;;4.83;2.20;;;10.90;1.00;;;;;;5078511;28;20471;-39
2024/04/01 03:02:04;;;;;;;4.23;2.00;;;10.90;1.00;;;;;;5078118;28;20281;-39
2024/04/01 03:04:29;;;;;;;6.70;2.30;;;10.90;1.00;;;;;;5078260;28;20256;-38
2024/04/01 03:06:55;;;;;;;4.40;1.70;;;10.80;1.00;;;;;;5077904;28;20445;-40
2024/04/01 03:09:21;;;;;;;5.77;2.40;;;10.80;1.00;;;;;;5077710;28;20319;-39
2024/04/01 03:11:47;;;;;;;4.13;2.10;;;10.80;1.00;;;;;;5077502;28;20268;-41
2024/04/01 03:14:12;;;;;;;4.10;2.40;;;10.80;1.00;;;;;;5076474;28;20181;-40
2024/04/01 03:16:38;;;;;;;5.10;1.80;;;10.70;1.00;;;;;;5076388;28;20434;-38
2024/04/01 03:19:04;;;;;;;3.60;1.97;;;10.70;1.00;;;;;;5075947;28;20312;-38
2024/04/01 03:21:30;;;;;;;5.33;2.13;;;10.60;1.00;;;;;;5076206;28;20253;-38
2024/04/01 03:23:58;;;;;;;4.40;1.97;;;10.60;1.00;;;;;;5075759;28;20185;-39
2024/04/01 03:26:23;;;;;;;5.77;3.03;;;10.60;1.00;;;;;;5076255;28;20514;-40
2024/04/01 03:28:49;;;;;;;5.33;2.40;;;10.60;1.00;;;;;;5076734;28;20539;-38
2024/04/01 03:31:15;;;;;;;3.63;2.30;;;10.50;1.00;;;;;;5077426;28;20317;-39
2024/04/01 03:33:41;;;;;;;4.73;2.60;;;10.50;1.00;;;;;;5077568;28;20500;-38
2024/04/01 03:36:06;;;;;;;3.57;2.73;;;10.50;1.00;;;;;;5077513;28;20481;-38
2024/04/01 03:38:32;;;;;;;6.87;2.80;;;10.50;1.00;;;;;;5077964;28;20189;-38
2024/04/01 03:40:58;;;;;;;5.17;2.70;;;10.60;1.00;;;;;;5077155;28;20459;-39
2024/04/01 03:43:23;;;;;;;4.90;2.97;;;10.50;1.00;;;;;;5077318;28;20518;-38
2024/04/01 03:46:01;;;;;;;3.97;2.43;;;10.60;1.00;;;;;;5078153;28;20264;-38
2024/04/01 03:48:28;;;;;;;6.07;3.20;;;10.60;1.00;;;;;;5078120;28;20238;-42
2024/04/01 03:50:54;;;;;;;3.97;2.70;;;10.60;1.00;;;;;;5077717;28;20455;-40
2024/04/01 03:53:20;;;;;;;6.80;3.10;;;10.50;1.00;;;;;;5078038;28;20545;-38
2024/04/01 03:55:46;;;;;;;4.30;3.33;;;10.50;1.00;;;;;;5077300;28;20211;-40
2024/04/01 03:58:13;;;;;;;4.40;3.13;;;10.50;1.00;;;;;;5077032;28;20419;-40
2024/04/01 04:00:39;;;;;;;6.53;3.17;;;10.50;1.00;;;;;;5076743;28;20471;-39
2024/04/01 04:03:07;;;;;;;4.60;3.00;;;10.40;1.00;;;;;;5076865;28;20457;-39
2024/04/01 04:05:35;;;;;;;5.97;3.60;;;10.40;1.00;;;;;;5076372;28;20701;-40
2024/04/01 04:08:01;;;;;;;3.97;3.10;;;10.40;1.00;;;;;;5077124;28;20484;-39
2024/04/01 04:10:28;;;;;;;5.37;3.07;;;10.40;1.00;;;;;;5076837;28;20770;-40
2024/04/01 04:12:55;;;;;;;4.30;3.67;;;10.40;1.00;;;;;;5077456;28;20482;-38
2024/04/01 04:15:21;;;;;;;3.17;2.73;;;10.40;1.00;;;;;;5059283;28;20779;-39
2024/04/01 04:17:47;;;;;;;5.20;3.50;;;10.30;1.00;;;;;;5076313;28;20463;-39
2024/04/01 04:20:12;;;;;;;4.20;3.30;;;10.30;1.00;;;;;;5076805;28;20521;-40
2024/04/01 04:22:38;;;;;;;7.47;3.60;;;10.30;1.00;;;;;;5076261;28;20181;-39
2024/04/01 04:25:04;;;;;;;4.37;3.97;;;10.40;1.00;;;;;;5076833;28;20248;-39
2024/04/01 04:27:30;;;;;;;7.83;3.80;;;10.30;1.00;;;;;;5077588;28;20189;-39
2024/04/01 04:29:56;;;;;;;5.20;3.60;;;10.30;1.00;;;;;;5076873;28;20442;-39
2024/04/01 04:32:22;;;;;;;4.87;3.90;;;10.30;1.00;;;;;;5076890;28;20431;-39
2024/04/01 04:34:48;;;;;;;5.73;3.10;;;10.30;1.00;;;;;;5076784;28;20227;-41
2024/04/01 04:37:15;;;;;;;6.57;3.00;;;10.20;1.00;;;;;;5076655;28;20480;-38
2024/04/01 04:39:41;;;;;;;4.10;2.93;;;10.20;1.00;;;;;;5076256;28;20303;-44
2024/04/01 04:42:07;;;;;;;4.17;3.30;;;10.30;1.00;;;;;;5076755;28;20487;-39
2024/04/01 04:44:32;;;;;;;5.00;3.00;;;10.30;1.00;;;;;;5076791;28;20204;-38
2024/04/01 04:46:58;;;;;;;4.70;2.97;;;10.30;1.00;;;;;;5076592;28;20181;-39
2024/04/01 04:49:24;;;;;;;6.23;2.97;;;10.30;1.00;;;;;;5076950;28;20208;-39
2024/04/01 04:51:49;;;;;;;5.30;2.70;;;10.20;1.00;;;;;;5058876;28;20184;-39
2024/04/01 04:54:15;;;;;;;4.17;2.30;;;10.20;1.00;;;;;;5076817;28;20284;-40
2024/04/01 04:56:41;;;;;;;2.60;1.87;;;10.20;1.00;;;;;;5075802;28;20185;-39
2024/04/01 04:59:10;;;;;;;5.20;2.20;;;10.20;1.00;;;;;;5075630;28;20494;-38
2024/04/01 05:01:36;;;;;;;2.63;1.73;;;10.20;1.00;;;;;;5076641;28;20181;-40
2024/04/01 05:04:02;;;;;;;3.90;2.00;;;10.10;1.00;;;;;;5076023;28;20767;-40
2024/04/01 05:06:27;;;;;;;2.70;2.20;;;10.10;1.00;;;;;;5076093;28;20639;-38
2024/04/01 05:08:53;;;;;;;4.43;2.27;;;10.00;1.00;;;;;;5076737;28;20348;-38
2024/04/01 05:11:19;;;;;;;4.10;2.97;;;10.00;1.00;;;;;;5078594;28;20264;-38
2024/04/01 05:13:44;;;;;;;4.67;2.47;;;9.90;1.00;;;;;;5079908;28;20177;-40
2024/04/01 05:16:14;;;;;;;3.83;2.43;;;9.90;1.00;;;;;;5080674;28;20185;-40
2024/04/01 05:18:41;;;;;;;3.70;2.30;;;9.90;1.00;;;;;;5078881;28;20239;-39
2024/04/01 05:21:07;;;;;;;4.53;1.87;;;9.90;1.00;;;;;;5079280;28;20489;-40
2024/04/01 05:23:32;;;;;;;6.97;2.03;;;10.00;1.00;;;;;;5077073;28;20423;-39
2024/04/01 05:25:58;;;;;;;2.70;1.93;;;10.00;1.00;;;;;;5077369;28;20288;-38
2024/04/01 05:28:23;;;;;;;4.27;1.97;;;9.90;1.00;;;;;;5076918;28;20178;-38
2024/04/01 05:30:55;;;;;;;3.37;1.87;;;9.90;1.00;;;;;;5059064;28;20460;-37
2024/04/01 05:33:22;;;;;;;2.50;1.40;;;9.90;1.00;;;;;;5076015;28;20447;-39
2024/04/01 05:35:48;;;;;;;3.50;1.80;;;9.90;1.00;;;;;;5076080;28;20431;-41
2024/04/01 05:38:15;;;;;;;3.43;1.20;;;10.00;1.00;;;;;;5057642;28;20438;-40
2024/04/01 05:40:41;;;;;;;3.30;1.60;;;9.90;1.00;;;;;;5059454;28;20456;-38
2024/04/01 05:43:07;;;;;;;2.53;1.30;;;10.00;1.00;;;;;;5078626;28;20947;-39
2024/04/01 05:45:33;;;;;;;4.27;1.50;;;10.00;1.00;;;;;;5078638;28;20496;-40
2024/04/01 05:47:59;;;;;;;4.03;1.10;;;9.90;1.00;;;;;;5078502;28;20195;-39
2024/04/01 05:50:25;;;;;;;2.83;1.33;;;10.00;1.00;;;;;;5078773;28;20427;-39
2024/04/01 05:52:50;;;;;;;2.70;1.33;;;9.90;1.00;;;;;;5060802;28;20465;-39
2024/04/01 05:55:16;;;;;;;2.43;1.20;;;9.90;1.00;;;;;;5079057;28;20411;-38
2024/04/01 05:57:42;;;;;;;2.00;1.20;;;9.90;1.00;;;;;;5079086;28;20436;-39
2024/04/01 06:00:08;;;;;;;1.53;1.03;;;9.90;1.00;;;;;;5078678;28;20475;-40
2024/04/01 06:02:33;;;;;;;1.33;1.13;;;9.90;1.00;;;;;;5060890;28;20193;-40
2024/04/01 06:04:59;;;;;;;2.00;0.93;;;9.90;1.00;;;;;;5079372;28;20424;-40
2024/04/01 06:07:29;;;;;;;2.47;1.00;;;9.90;1.00;;;;;;5079698;28;20176;-38
2024/04/01 06:10:00;;;;;;;3.10;1.20;;;9.90;1.00;;;;;;5078643;28;20184;-38
2024/04/01 06:12:27;;;;;;;4.97;1.23;;;9.90;1.00;;;;;;5078651;28;20869;-39
2024/04/01 06:14:55;;;;;;;1.23;0.73;;;9.90;1.00;;;;;;5079351;28;20573;-40
2024/04/01 06:17:20;;;;;;;2.00;1.27;;;9.90;1.00;;;;;;5079540;28;20863;-38
2024/04/01 06:19:46;;;;;;;1.47;0.80;;;9.90;1.00;;;;;;5079049;28;20734;-41
2024/04/01 06:22:12;;;;;;;2.73;1.43;;;9.90;1.00;;;;;;5077623;28;20261;-39
2024/04/01 06:24:38;;;;;;;1.77;1.00;;;9.80;1.00;;;;;;5079053;28;20212;-39
2024/04/01 06:27:05;;;;;;;2.63;1.20;;;9.90;1.00;;;;;;5079178;28;20837;-39
2024/04/01 06:29:30;;;;;;;3.63;1.13;;;9.90;1.00;;;;;;5079401;28;20883;-39
2024/04/01 06:31:56;;;;;;;3.73;1.10;;;9.80;1.00;;;;;;5059500;28;20760;-38
2024/04/01 06:34:22;;;;;;;2.30;1.50;;;9.90;1.00;;;;;;5078020;28;20177;-38
2024/04/01 06:36:49;;;;;;;4.03;1.30;;;9.90;1.00;;;;;;5060325;28;20787;-38
2024/04/01 06:39:16;;;;;;;1.80;0.97;;;9.90;1.00;;;;;;5078453;28;20235;-40
2024/04/01 06:41:42;;;;;;;2.73;1.50;;;9.90;1.00;;;;;;5078117;28;20521;-39
2024/04/01 06:44:08;;;;;;;1.40;1.30;;;9.90;1.00;;;;;;5076111;28;20427;-41
2024/04/01 06:46:33;;;;;;;3.93;1.50;;;9.90;1.00;;;;;;5076233;28;20813;-41
2024/04/01 06:48:59;;;;;;;2.13;1.30;;;9.90;1.00;;;;;;5077552;28;20184;-38
2024/04/01 06:51:25;;;;;;;3.73;1.83;;;9.90;1.00;;;;;;5077519;28;20181;-39
2024/04/01 06:53:50;;;;;;;3.27;1.40;;;9.90;1.00;;;;;;5077509;28;20209;-40
2024/04/01 06:56:16;;;;;;;3.87;1.70;;;9.90;1.00;;;;;;5078307;28;20181;-42
2024/04/01 06:58:42;;;;;;;2.53;1.33;;;9.80;1.00;;;;;;5076419;28;20188;-39
2024/04/01 07:01:07;;;;;;;4.53;1.47;;;9.80;1.00;;;;;;5058757;28;20552;-39
2024/04/01 07:03:33;;;;;;;2.77;1.37;;;9.80;1.00;;;;;;5077179;28;20360;-39
2024/04/01 07:05:58;;;;;;;6.30;1.27;;;9.90;1.00;;;;;;5076667;28;20188;-41
2024/04/01 07:08:24;;;;;;;4.30;1.40;;;9.90;1.00;;;;;;5076119;28;20200;-39
2024/04/01 07:10:50;;;;;;;2.13;1.03;;;9.90;1.00;;;;;;5076105;28;20185;-39
2024/04/01 07:13:15;;;;;;;1.60;1.23;;;9.90;1.00;;;;;;5075986;28;20243;-40
2024/04/01 07:15:41;;;;;;;2.83;1.40;;;9.90;1.00;;;;;;5077617;28;20185;-38
2024/04/01 07:18:07;;;;;;;1.90;1.20;;;9.90;1.00;;;;;;5057191;28;20610;-39
2024/04/01 07:20:32;;;;;;;3.80;1.20;;;9.90;1.00;;;;;;5057424;28;20608;-39
2024/04/01 07:22:58;;;;;;;5.57;1.90;;;10.00;1.00;;;;;;5057463;28;20261;-38
2024/04/01 07:25:24;;;;;;;5.17;2.40;;;10.00;1.00;;;;;;5057966;28;20166;-41
2024/04/01 07:27:49;;;;;;;4.07;1.60;;;9.90;1.00;;;;;;5058580;28;20432;-38
2024/04/01 07:30:15;;;;;;;5.53;1.57;;;9.90;1.00;;;;;;5059153;28;20185;-38
2024/04/01 07:32:41;;;;;;;5.50;1.57;;;9.90;1.00;;;;;;5057139;28;20249;-39
2024/04/01 07:35:07;;;;;;;3.47;2.10;;;9.90;1.00;;;;;;5056434;28;20566;-40
2024/04/01 07:37:33;;;;;;;5.70;2.00;;;9.90;1.00;;;;;;5057914;28;20282;-39
2024/04/01 07:39:59;;;;;;;2.17;1.70;;;9.90;1.00;;;;;;5058860;28;20232;-39
2024/04/01 07:42:25;;;;;;;9.80;5.40;;;9.90;1.00;;;;;;5057018;28;20428;-39
2024/04/01 07:44:51;;;;;;;4.60;2.37;;;9.90;1.00;;;;;;5058952;28;20523;-40
2024/04/01 07:47:18;;;;;;;6.30;1.70;;;9.90;1.00;;;;;;5058820;28;20193;-38
2024/04/01 07:49:44;;;;;;;3.03;1.50;;;9.80;1.00;;;;;;5059391;28;20420;-38
2024/04/01 07:52:10;;;;;;;3.07;2.00;;;9.70;1.00;;;;;;5057935;28;20411;-39
2024/04/01 07:54:35;;;;;;;2.53;1.90;;;9.70;1.00;;;;;;5058782;28;20251;-39
2024/04/01 07:57:02;;;;;;;2.83;1.97;;;9.60;1.00;;;;;;5058914;28;20480;-39
2024/04/01 07:59:32;;;;;;;3.43;1.73;;;9.60;1.00;;;;;;5057499;28;20579;-38
2024/04/01 08:01:58;;;;;;;2.70;1.33;;;9.70;1.00;;;;;;5057692;28;20510;-40
2024/04/01 08:04:24;;;;;;;2.33;1.20;;;9.70;1.00;;;;;;5057933;28;20797;-38
2024/04/01 08:06:50;;;;;;;1.43;0.77;;;9.60;1.00;;;;;;5057178;28;20518;-40
2024/04/01 08:09:16;;;;;;;2.47;1.13;;;9.50;1.00;;;;;;5058961;28;20435;-39
2024/04/01 08:11:42;;;;;;;2.60;1.20;;;9.50;1.00;;;;;;5057749;28;20498;-40
2024/04/01 08:14:08;;;;;;;2.10;0.77;;;9.50;1.00;;;;;;5057836;28;20428;-37
2024/04/01 08:16:33;;;;;;;2.27;1.10;;;9.30;1.00;;;;;;5059572;28;20232;-44
2024/04/01 08:19:00;;;;;;;1.40;0.80;;;9.30;1.00;;;;;;5070403;28;20225;-38
2024/04/01 08:21:26;;;;;;;1.00;0.60;;;9.20;1.00;;;;;;5078775;28;20478;-38
2024/04/01 08:23:51;;;;;;;0.90;0.57;;;9.30;1.00;;;;;;5062770;28;20461;-40
2024/04/01 08:26:17;;;;;;;1.97;0.70;;;9.20;1.00;;;;;;5061630;28;20242;-40
2024/04/01 08:28:43;;;;;;;0.90;0.40;;;9.20;1.00;;;;;;5060637;28;20268;-39
2024/04/01 08:31:08;;;;;;;0.80;0.50;;;9.20;1.00;;;;;;5077932;28;20176;-39
2024/04/01 08:33:34;;;;;;;1.03;0.60;;;9.20;1.00;;;;;;5078443;28;20547;-40
2024/04/01 08:36:00;;;;;;;1.50;0.90;;;9.20;1.00;;;;;;5078504;28;20208;-40
2024/04/01 08:38:26;;;;;;;1.20;0.67;;;9.20;1.00;;;;;;5078412;28;20169;-39
2024/04/01 08:41:12;;;;;;;0.70;0.50;;;9.30;1.00;;;;;;5077554;28;20593;-40
2024/04/01 08:43:54;;;;;;;1.77;0.93;;;9.30;1.00;;;;;;5077644;28;20173;-39
2024/04/01 08:46:21;;;;;;;0.70;0.30;;;9.40;1.00;;;;;;5062089;28;20427;-37
2024/04/01 08:48:50;;;;;;;4.63;1.80;;;9.40;1.00;;;;;;5080227;28;20438;-43
2024/04/01 08:51:20;;;;;;;2.20;0.77;;;9.80;1.00;;;;;;5062497;28;20427;-43
2024/04/01 08:54:01;;;;;;;1.50;0.77;;;10.10;1.00;;;;;;5079066;28;20833;-44
2024/04/01 08:56:29;;;;;;;1.13;0.53;;;10.30;99.90;;;;;;5078855;28;20427;-42
2024/04/01 08:58:59;;;;;;;0.70;0.50;;;10.30;99.90;;;;;;5079359;28;20434;-44
2024/04/01 09:01:25;;;;;;;1.27;0.67;;;10.30;99.90;;;;;;5080142;28;20484;-44
2024/04/01 09:03:52;;;;;;;0.90;0.43;;;10.10;99.90;;;;;;5079466;28;20424;-43
2024/04/01 09:06:21;;;;;;;0.70;0.40;;;10.10;99.90;;;;;;5079768;28;20423;-45
2024/04/01 09:08:48;;;;;;;0.87;0.50;;;10.00;99.90;;;;;;5080069;28;20423;-45
2024/04/01 09:11:14;;;;;;;0.80;0.40;;;9.90;99.90;;;;;;5081255;28;20718;-42
2024/04/01 09:13:40;;;;;;;1.13;0.50;;;9.80;99.90;;;;;;5081464;28;20411;-42
2024/04/01 09:16:07;;;;;;;1.00;0.60;;;9.80;99.90;;;;;;5080671;28;20891;-44
2024/04/01 09:18:36;;;;;;;0.90;0.40;;;9.80;99.90;;;;;;5079494;28;20490;-44
2024/04/01 09:21:03;;;;;;;1.10;0.40;;;9.90;99.90;;;;;;5080223;28;20488;-48
2024/04/01 09:23:31;;;;;;;0.80;0.47;;;9.80;99.90;;;;;;5063107;28;20438;-43
2024/04/01 09:26:00;;;;;;;1.20;0.50;;;9.80;99.90;;;;;;5080524;28;20837;-43
2024/04/01 09:28:29;;;;;;;0.80;0.30;;;9.70;99.90;;;;;;5078787;28;20507;-44
2024/04/01 09:30:56;;;;;;;0.90;0.40;;;9.70;99.90;;;;;;5079776;28;20430;-44
2024/04/01 09:33:23;;;;;;;0.67;0.30;;;9.60;99.90;;;;;;5079485;28;20439;-43
2024/04/01 09:35:49;;;;;;;0.97;0.53;;;9.50;99.90;;;;;;5080147;28;20431;-43
2024/04/01 09:38:19;;;;;;;0.80;0.50;;;9.40;99.90;;;;;;5079635;28;20428;-42
2024/04/01 09:40:51;;;;;;;0.70;0.30;;;9.50;99.90;;;;;;5043989;28;20463;-47
2024/04/01 09:43:27;;;;;;;2.20;0.63;;;9.50;99.90;;;;;;5079446;28;20463;-44
2024/04/01 09:45:53;;;;;;;1.10;0.40;;;9.70;99.90;;;;;;5080436;28;20505;-44
2024/04/01 09:48:22;;;;;;;1.00;0.60;;;9.70;98.40;;;;;;5080342;28;20500;-44
2024/04/01 09:50:49;;;;;;;0.80;0.60;;;9.70;89.80;;;;;;5079454;28;20431;-42
2024/04/01 09:53:16;;;;;;;1.10;0.50;;;9.80;1.00;;;;;;5078578;28;20465;-43
2024/04/01 09:56:00;;;;;;;0.70;0.30;;;9.70;1.00;;;;;;5078522;28;20415;-44
2024/04/01 09:58:41;;;;;;;0.80;0.40;;;9.70;1.00;;;;;;5078493;28;20423;-43
2024/04/01 10:01:30;;;;;;;0.60;0.30;;;9.70;1.00;;;;;;5060128;28;20943;-45
2024/04/01 10:04:02;;;;;;;0.70;0.30;;;9.70;1.00;;;;;;5078652;28;20423;-43
2024/04/01 10:06:57;;;;;;;0.70;0.30;;;9.70;1.00;;;;;;5079194;28;20670;-44
2024/04/01 10:09:40;;;;;;;0.90;0.40;;;9.80;1.00;;;;;;5045017;28;20430;-43
2024/04/01 10:12:27;;;;;;;0.90;0.60;;;9.90;1.00;;;;;;5060868;28;20429;-44
2024/04/01 10:15:20;;;;;;;6.23;1.57;;;10.00;99.90;;;;;;5078723;28;20431;-43
2024/04/01 10:18:12;;;;;;;1.27;0.93;;;10.10;1.00;;;;;;5041206;28;20439;-43
2024/04/01 10:21:00;;;;;;;1.87;0.90;;;10.30;9.80;;;;;;5078656;28;20562;-43
2024/04/01 10:23:54;;;;;;;3.13;1.20;;;10.40;99.90;;;;;;5078671;28;20423;-44
2024/04/01 10:26:28;;;;;;;1.10;0.67;;;10.60;99.90;;;;;;5078877;28;20694;-43
2024/04/01 10:29:10;;;;;;;0.70;0.30;;;10.80;37.70;;;;;;5078141;28;20705;-43
2024/04/01 10:32:03;;;;;;;0.90;0.43;;;10.70;1.00;;;;;;5060111;28;20481;-45
2024/04/01 10:35:00;;;;;;;0.70;0.40;;;10.70;99.90;;;;;;5077913;28;20432;-45
2024/04/01 10:37:44;;;;;;;1.20;0.40;;;10.40;99.90;;;;;;5077337;28;20408;-42
2024/04/01 10:40:28;;;;;;;0.80;0.43;;;10.30;1.00;;;;;;5077950;28;20811;-42
2024/04/01 10:43:28;;;;;;;0.73;0.40;;;10.40;99.90;;;;;;5076357;28;20758;-44
2024/04/01 10:46:05;;;;;;;0.83;0.33;;;10.40;1.00;;;;;;5078145;28;20529;-42
2024/04/01 10:48:38;;;;;;;0.70;0.37;;;10.30;1.00;;;;;;5078762;28;20430;-42
2024/04/01 10:51:32;;;;;;;0.70;0.30;;;10.40;99.90;;;;;;5059124;28;20860;-45
2024/04/01 10:54:03;;;;;;;1.30;0.30;;;10.20;99.90;;;;;;5076779;28;20419;-43
2024/04/01 10:56:57;;;;;;;1.20;0.30;;;9.90;99.90;;;;;;5059116;28;20691;-42
2024/04/01 10:59:57;;;;;;;0.70;0.40;;;9.90;1.00;;;;;;5075635;28;20479;-42
2024/04/01 11:02:52;;;;;;;0.90;0.30;;;9.70;99.90;;;;;;5075086;28;20431;-44
2024/04/01 11:05:39;;;;;;;0.90;0.40;;;9.60;99.90;;;;;;5003070;28;20488;-41
2024/04/01 11:08:26;;;;;;;0.60;0.20;;;9.50;1.00;;;;;;5075829;28;20454;-42
2024/04/01 11:11:07;;;;;;;0.90;0.40;;;9.40;99.90;;;;;;5059800;28;20423;-43
2024/04/01 11:13:37;;;;;;;0.90;0.50;;;9.50;99.90;;;;;;5077958;28;20407;-43
2024/04/01 11:16:04;;;;;;;4.20;0.60;;;9.50;1.00;;;;;;5060544;28;20801;-43
2024/04/01 11:18:39;;;;;;;0.90;0.30;;;9.50;1.00;;;;;;5077537;28;20807;-44
2024/04/01 11:21:20;;;;;;;0.60;0.20;;;9.40;1.00;;;;;;5077627;28;20490;-45
2024/04/01 11:24:08;;;;;;;0.60;0.30;;;9.40;1.00;;;;;;5077986;28;20427;-41
2024/04/01 11:27:05;;;;;;;0.90;0.30;;;9.30;1.00;;;;;;5076553;28;20539;-44
2024/04/01 11:29:34;;;;;;;0.80;0.30;;;9.30;1.00;;;;;;5060085;28;20465;-45
2024/04/01 11:32:02;;;;;;;0.70;0.30;;;9.30;1.00;;;;;;5077436;28;20427;-45
2024/04/01 11:34:55;;;;;;;0.90;0.40;;;9.40;1.00;;;;;;5040387;28;20531;-43
2024/04/01 11:37:27;;;;;;;1.30;0.70;;;9.50;1.00;;;;;;5077439;28;20747;-44
2024/04/01 11:39:58;;;;;;;1.30;0.70;;;9.50;1.00;;;;;;5076530;28;20471;-46
2024/04/01 11:42:26;;;;;;;1.03;0.53;;;9.60;1.00;;;;;;5077286;28;20533;-43
2024/04/01 11:44:52;;;;;;;1.50;0.80;;;9.70;1.00;;;;;;5076645;28;20427;-44
2024/04/01 11:47:19;;;;;;;1.00;0.60;;;9.70;1.00;;;;;;5077214;28;20717;-43
2024/04/01 11:49:45;;;;;;;1.00;0.47;;;9.70;1.00;;;;;;5059453;28;20431;-43
2024/04/01 11:52:16;;;;;;;1.03;0.57;;;9.70;1.00;;;;;;5077509;28;20475;-43
2024/04/01 11:54:43;;;;;;;0.90;0.57;;;9.60;99.90;;;;;;5058872;28;20185;-45
2024/04/01 11:57:12;;;;;;;1.37;0.60;;;9.60;99.90;;;;;;5059987;28;20523;-43
2024/04/01 11:59:37;;;;;;;1.43;0.63;;;9.70;1.00;;;;;;5059606;28;20536;-43
2024/04/01 12:02:12;;;;;;;1.43;0.40;;;9.70;1.00;;;;;;5075305;28;20439;-42
2024/04/01 12:04:38;;;;;;;2.03;0.60;;;9.60;99.90;;;;;;5076039;28;20418;-43
2024/04/01 12:07:05;;;;;;;0.80;0.40;;;9.70;1.00;;;;;;5059753;28;20412;-45
2024/04/01 12:09:35;;;;;;;0.80;0.40;;;9.70;1.00;;;;;;5076736;28;20255;-45
2024/04/01 12:12:01;;;;;;;0.80;0.40;;;9.80;1.00;;;;;;5089702;28;20429;-42
2024/04/01 12:14:27;;;;;;;1.27;0.27;;;9.90;1.00;;;;;;5079364;28;20525;-43
2024/04/01 12:16:57;;;;;;;0.90;0.27;;;9.80;99.90;;;;;;5095864;28;20189;-44
2024/04/01 12:19:22;;;;;;;0.70;0.40;;;9.80;1.00;;;;;;5076210;28;20484;-45
2024/04/01 12:21:50;;;;;;;3.17;0.40;;;9.90;1.00;;;;;;5096932;28;20426;-44
2024/04/01 12:24:16;;;;;;;0.70;0.30;;;10.00;1.00;;;;;;5078961;28;20176;-43
2024/04/01 12:26:42;;;;;;;3.97;0.30;;;10.00;46.60;;;;;;5097271;28;20460;-45
2024/04/01 12:29:13;;;;;;;0.80;0.50;;;10.10;99.90;;;;;;5062649;28;20686;-42
2024/04/01 12:31:50;;;;;;;0.90;0.37;;;10.30;13.60;;;;;;5097485;28;20674;-44
2024/04/01 12:34:15;;;;;;;0.90;0.50;;;10.40;1.00;;;;;;5078004;28;20418;-43
2024/04/01 12:36:42;;;;;;;1.00;0.60;;;10.70;99.90;;;;;;5096372;28;20445;-42
2024/04/01 12:39:12;;;;;;;0.80;0.40;;;10.80;1.00;;;;;;5095271;28;20164;-43
2024/04/01 12:41:40;;;;;;;0.77;0.40;;;10.80;1.00;;;;;;5077453;28;20505;-42
2024/04/01 12:44:08;;;;;;;0.60;0.20;;;10.90;99.90;;;;;;5095803;28;20844;-43
2024/04/01 12:46:43;;;;;;;0.70;0.30;;;10.90;1.00;;;;;;5094381;28;20399;-43
2024/04/01 12:49:13;;;;;;;0.80;0.27;;;10.60;1.00;;;;;;5095431;28;20410;-42
2024/04/01 12:51:41;;;;;;;0.60;0.27;;;10.40;1.00;;;;;;5078230;28;20414;-42
2024/04/01 12:54:24;;;;;;;1.00;0.40;;;10.20;1.00;;;;;;5095179;28;20423;-43
2024/04/01 12:57:11;;;;;;;0.83;0.40;;;10.20;1.00;;;;;;5076385;28;20541;-44
2024/04/01 13:00:05;;;;;;;0.73;0.30;;;10.30;99.90;;;;;;5094131;28;20497;-42
2024/04/01 13:02:51;;;;;;;0.83;0.30;;;10.40;84.60;;;;;;5094853;28;20419;-46
2024/04/01 13:05:40;;;;;;;0.80;0.40;;;10.60;1.00;;;;;;5062715;28;20460;-43
2024/04/01 13:08:31;;;;;;;1.10;0.30;;;10.50;1.00;;;;;;5084787;28;20420;-44